createdAt,value
2024-02-10T00:02:17.150Z,99.90
2024-02-10T00:04:44.207Z,99.90
2024-02-10T00:07:11.103Z,99.90
2024-02-10T00:09:38.668Z,99.90
2024-02-10T00:12:05.927Z,99.90
2024-02-10T00:14:35.273Z,99.90
2024-02-10T00:17:04.497Z,99.90
2024-02-10T00:19:31.342Z,99.90
2024-02-10T00:21:58.052Z,99.90
2024-02-10T00:24:27.563Z,99.90
2024-02-10T00:26:54.215Z,99.90
2024-02-10T00:29:23.361Z,99.90
2024-02-10T00:31:50.127Z,99.90
2024-02-10T00:34:16.954Z,99.90
2024-02-10T00:36:45.641Z,99.90
2024-02-10T00:39:13.732Z,99.90
2024-02-10T00:41:40.344Z,99.90
2024-02-10T00:44:06.916Z,99.90
2024-02-10T00:46:33.561Z,99.90
2024-02-10T00:49:01.603Z,99.90
2024-02-10T00:51:31.404Z,99.90
2024-02-10T00:53:58.053Z,99.90
2024-02-10T00:56:25.619Z,99.90
2024-02-10T00:58:52.440Z,99.90
2024-02-10T01:01:22.899Z,99.90
2024-02-10T01:03:49.897Z,99.90
2024-02-10T01:06:18.211Z,99.90
2024-02-10T01:08:47.657Z,99.90
2024-02-10T01:11:14.682Z,99.90
2024-02-10T01:13:44.824Z,99.90
2024-02-10T01:16:13.099Z,99.90
2024-02-10T01:18:40.066Z,99.90
2024-02-10T01:21:08.940Z,99.90
2024-02-10T01:23:35.557Z,99.90
2024-02-10T01:26:02.194Z,99.90
2024-02-10T01:28:28.812Z,99.90
2024-02-10T01:30:55.405Z,99.90
2024-02-10T01:33:22.094Z,99.90
2024-02-10T01:35:48.801Z,99.90
2024-02-10T01:38:15.367Z,99.90
2024-02-10T01:40:43.783Z,99.90
2024-02-10T01:43:10.425Z,99.90
2024-02-10T01:45:39.936Z,99.90
2024-02-10T01:48:09.598Z,99.90
2024-02-10T01:50:37.049Z,99.90
2024-02-10T01:53:04.955Z,99.90
2024-02-10T01:55:33.149Z,99.90
2024-02-10T01:58:01.558Z,99.90
2024-02-10T02:00:29.387Z,99.90
2024-02-10T02:03:00.802Z,99.90
2024-02-10T02:05:27.890Z,99.90
2024-02-10T02:07:55.413Z,99.90
2024-02-10T02:10:25.009Z,99.90
2024-02-10T02:12:52.033Z,99.90
2024-02-10T02:15:19.184Z,99.90
2024-02-10T02:17:46.123Z,99.90
2024-02-10T02:20:14.006Z,99.90
2024-02-10T02:22:47.280Z,99.90
2024-02-10T02:25:14.092Z,99.90
2024-02-10T02:27:40.751Z,99.90
2024-02-10T02:30:07.764Z,99.90
2024-02-10T02:32:35.617Z,99.90
2024-02-10T02:35:11.026Z,99.90
2024-02-10T02:37:41.909Z,99.90
2024-02-10T02:40:12.602Z,99.90
2024-02-10T02:42:39.533Z,99.90
2024-02-10T02:45:11.452Z,99.90
2024-02-10T02:47:38.422Z,99.90
2024-02-10T02:50:08.383Z,99.90
2024-02-10T02:52:36.345Z,99.90
2024-02-10T02:55:03.488Z,99.90
2024-02-10T02:57:32.636Z,99.90
2024-02-10T02:59:59.187Z,99.90
2024-02-10T03:02:27.017Z,99.90
2024-02-10T03:04:53.648Z,99.90
2024-02-10T03:07:22.654Z,99.90
2024-02-10T03:09:49.592Z,99.90
2024-02-10T03:12:16.242Z,99.90
2024-02-10T03:14:42.961Z,99.90
2024-02-10T03:17:13.954Z,99.90
2024-02-10T03:19:41.962Z,99.90
2024-02-10T03:22:08.554Z,99.90
2024-02-10T03:24:36.026Z,99.90
2024-02-10T03:27:05.241Z,99.90
2024-02-10T03:29:32.105Z,99.90
2024-02-10T03:31:58.720Z,99.90
2024-02-10T03:34:25.547Z,99.90
2024-02-10T03:36:52.217Z,99.90
2024-02-10T03:39:19.516Z,99.90
2024-02-10T03:41:46.215Z,99.90
2024-02-10T03:44:12.777Z,99.90
2024-02-10T03:46:39.440Z,99.90
2024-02-10T03:49:06.096Z,99.90
2024-02-10T03:51:32.922Z,99.90
2024-02-10T03:53:59.550Z,99.90
2024-02-10T03:56:28.397Z,99.90
2024-02-10T03:58:55.392Z,99.90
2024-02-10T04:01:22.104Z,99.90
2024-02-10T04:03:49.022Z,99.90
2024-02-10T04:06:19.887Z,99.90
2024-02-10T04:08:48.045Z,99.90
2024-02-10T04:11:15.510Z,99.90
2024-02-10T04:13:45.112Z,99.90
2024-02-10T04:16:13.582Z,99.90
2024-02-10T04:18:41.309Z,99.90
2024-02-10T04:21:08.269Z,99.90
2024-02-10T04:23:35.317Z,99.90
2024-02-10T04:26:02.699Z,99.90
2024-02-10T04:28:29.736Z,99.90
2024-02-10T04:30:56.677Z,99.90
2024-02-10T04:33:23.492Z,99.90
2024-02-10T04:35:50.607Z,99.90
2024-02-10T04:38:17.233Z,99.90
2024-02-10T04:40:43.840Z,99.90
2024-02-10T04:43:10.433Z,99.90
2024-02-10T04:45:37.097Z,99.90
2024-02-10T04:48:04.995Z,99.90
2024-02-10T04:50:32.126Z,99.90
2024-02-10T04:52:59.042Z,99.90
2024-02-10T04:55:25.982Z,99.90
2024-02-10T04:57:53.313Z,99.90
2024-02-10T05:00:20.593Z,99.90
2024-02-10T05:02:47.777Z,99.90
2024-02-10T05:05:15.012Z,99.90
2024-02-10T05:07:43.298Z,99.90
2024-02-10T05:10:12.229Z,99.90
2024-02-10T05:12:39.967Z,99.90
2024-02-10T05:15:09.295Z,99.90
2024-02-10T05:17:36.937Z,99.90
2024-02-10T05:20:11.924Z,99.90
2024-02-10T05:22:38.863Z,99.90
2024-02-10T05:25:07.772Z,99.90
2024-02-10T05:27:34.804Z,99.90
2024-02-10T05:30:01.382Z,99.90
2024-02-10T05:32:29.527Z,99.90
2024-02-10T05:34:56.208Z,99.90
2024-02-10T05:37:22.938Z,99.90
2024-02-10T05:39:49.522Z,99.90
2024-02-10T05:42:16.068Z,99.90
2024-02-10T05:44:42.658Z,99.90
2024-02-10T05:47:11.339Z,99.90
2024-02-10T05:49:41.056Z,99.90
2024-02-10T05:52:10.478Z,99.90
2024-02-10T05:54:37.443Z,99.90
2024-02-10T05:57:04.140Z,99.90
2024-02-10T05:59:30.711Z,99.90
2024-02-10T06:01:57.673Z,99.90
2024-02-10T06:04:24.386Z,99.90
2024-02-10T06:06:51.103Z,99.90
2024-02-10T06:09:18.590Z,99.90
2024-02-10T06:11:45.231Z,99.90
2024-02-10T06:14:11.835Z,99.90
2024-02-10T06:16:41.462Z,99.90
2024-02-10T06:19:08.193Z,99.90
2024-02-10T06:21:34.921Z,99.90
2024-02-10T06:24:02.690Z,99.90
2024-02-10T06:26:31.175Z,99.90
2024-02-10T06:29:00.015Z,99.90
2024-02-10T06:31:26.889Z,99.90
2024-02-10T06:33:54.014Z,99.90
2024-02-10T06:36:20.636Z,99.90
2024-02-10T06:38:47.215Z,99.90
2024-02-10T06:41:13.882Z,99.90
2024-02-10T06:43:40.667Z,99.90
2024-02-10T06:46:08.633Z,99.90
2024-02-10T06:48:36.593Z,99.90
2024-02-10T06:51:03.295Z,99.90
2024-02-10T06:53:29.982Z,99.90
2024-02-10T06:55:57.124Z,99.90
2024-02-10T06:58:25.503Z,99.90
2024-02-10T07:00:52.176Z,99.90
2024-02-10T07:03:21.627Z,99.90
2024-02-10T07:05:51.409Z,99.90
2024-02-10T07:08:18.547Z,99.90
2024-02-10T07:10:49.122Z,99.90
2024-02-10T07:13:16.140Z,99.90
2024-02-10T07:15:43.180Z,99.90
2024-02-10T07:18:12.763Z,99.90
2024-02-10T07:20:41.558Z,99.90
2024-02-10T07:23:08.338Z,99.90
2024-02-10T07:25:46.036Z,99.90
2024-02-10T07:28:12.832Z,99.90
2024-02-10T07:30:39.486Z,99.90
2024-02-10T07:33:13.384Z,99.90
2024-02-10T07:35:40.872Z,99.90
2024-02-10T07:38:09.813Z,99.90
2024-02-10T07:40:37.076Z,99.90
2024-02-10T07:43:05.496Z,99.90
2024-02-10T07:45:32.337Z,99.90
2024-02-10T07:48:02.125Z,99.90
2024-02-10T07:50:28.907Z,99.90
2024-02-10T07:52:55.564Z,99.90
2024-02-10T07:55:22.296Z,99.90
2024-02-10T07:57:49.415Z,99.90
2024-02-10T08:00:19.624Z,99.90
2024-02-10T08:02:46.325Z,99.90
2024-02-10T08:05:16.650Z,99.90
2024-02-10T08:07:43.817Z,99.90
2024-02-10T08:10:10.528Z,99.90
2024-02-10T08:12:37.306Z,99.90
2024-02-10T08:15:04.131Z,99.90
2024-02-10T08:17:33.750Z,99.90
2024-02-10T08:20:01.457Z,99.90
2024-02-10T08:22:29.194Z,99.90
2024-02-10T08:25:00.533Z,99.90
2024-02-10T08:27:29.483Z,99.90
2024-02-10T08:29:56.649Z,99.90
2024-02-10T08:32:25.449Z,99.90
2024-02-10T08:34:52.627Z,99.90
2024-02-10T08:37:19.710Z,99.90
2024-02-10T08:39:46.963Z,99.90
2024-02-10T08:42:14.061Z,99.90
2024-02-10T08:44:41.181Z,99.90
2024-02-10T08:47:08.151Z,99.90
2024-02-10T08:49:37.480Z,99.90
2024-02-10T08:52:11.680Z,99.90
2024-02-10T08:54:43.119Z,99.90
2024-02-10T08:57:11.211Z,99.90
2024-02-10T08:59:52.461Z,99.90
2024-02-10T09:02:19.924Z,99.90
2024-02-10T09:04:46.571Z,99.90
2024-02-10T09:07:13.747Z,99.90
2024-02-10T09:09:42.462Z,99.90
2024-02-10T09:12:09.327Z,99.90
2024-02-10T09:14:36.048Z,99.90
2024-02-10T09:17:10.151Z,99.90
2024-02-10T09:19:37.999Z,99.90
2024-02-10T09:22:06.581Z,99.90
2024-02-10T09:24:35.797Z,99.90
2024-02-10T09:27:03.451Z,99.90
2024-02-10T09:29:30.660Z,99.90
2024-02-10T09:32:00.854Z,99.90
2024-02-10T09:34:28.418Z,99.90
2024-02-10T09:36:55.462Z,99.90
2024-02-10T09:39:22.079Z,99.90
2024-02-10T09:41:50.758Z,99.90
2024-02-10T09:44:18.312Z,99.90
2024-02-10T09:46:49.052Z,99.90
2024-02-10T09:49:18.327Z,99.90
2024-02-10T09:51:45.861Z,99.90
2024-02-10T09:54:14.598Z,99.90
2024-02-10T09:56:41.687Z,99.90
2024-02-10T09:59:11.825Z,99.90
2024-02-10T10:01:39.176Z,99.90
2024-02-10T10:04:11.223Z,99.90
2024-02-10T10:06:41.071Z,99.90
2024-02-10T10:09:09.126Z,99.90
2024-02-10T10:11:39.182Z,99.90
2024-02-10T10:14:05.829Z,99.90
2024-02-10T10:16:33.366Z,99.90
2024-02-10T10:19:01.638Z,99.90
2024-02-10T10:21:29.874Z,99.90
2024-02-10T10:23:56.539Z,99.90
2024-02-10T10:26:24.300Z,99.90
2024-02-10T10:28:51.225Z,99.90
2024-02-10T10:31:19.864Z,99.90
2024-02-10T10:33:49.291Z,99.90
2024-02-10T10:36:17.370Z,99.90
2024-02-10T10:38:45.644Z,99.90
2024-02-10T10:41:20.111Z,99.90
2024-02-10T10:43:47.021Z,99.90
2024-02-10T10:46:17.897Z,99.90
2024-02-10T10:48:45.475Z,99.90
2024-02-10T10:51:13.299Z,99.90
2024-02-10T10:53:41.954Z,99.90
2024-02-10T10:56:10.509Z,99.90
2024-02-10T10:58:40.720Z,99.90
2024-02-10T11:01:08.217Z,99.90
2024-02-10T11:03:34.938Z,99.90
2024-02-10T11:06:10.973Z,99.90
2024-02-10T11:08:41.033Z,99.90
2024-02-10T11:11:11.367Z,99.90
2024-02-10T11:13:41.084Z,99.90
2024-02-10T11:16:13.435Z,99.90
2024-02-10T11:18:40.833Z,99.90
2024-02-10T11:21:08.368Z,99.90
2024-02-10T11:23:42.383Z,99.90
2024-02-10T11:26:10.949Z,99.90
2024-02-10T11:28:39.751Z,99.90
2024-02-10T11:31:13.271Z,99.90
2024-02-10T11:33:40.049Z,99.90
2024-02-10T11:36:11.809Z,99.90
2024-02-10T11:38:38.865Z,99.90
2024-02-10T11:41:06.388Z,99.90
2024-02-10T11:43:34.644Z,99.90
2024-02-10T11:46:01.252Z,99.90
2024-02-10T11:48:29.332Z,99.90
2024-02-10T11:51:03.414Z,99.90
2024-02-10T11:53:32.556Z,99.90
2024-02-10T11:56:05.262Z,99.90
2024-02-10T11:58:32.038Z,99.90
2024-02-10T12:00:58.754Z,99.90
2024-02-10T12:03:26.309Z,99.90
2024-02-10T12:08:19.719Z,99.90
2024-02-10T12:10:46.427Z,99.90
2024-02-10T12:13:13.093Z,99.90
2024-02-10T12:15:39.676Z,99.90
2024-02-10T12:18:07.493Z,99.90
2024-02-10T12:20:38.272Z,99.90
2024-02-10T12:23:05.245Z,99.90
2024-02-10T12:25:32.885Z,99.90
2024-02-10T12:27:59.568Z,99.90
2024-02-10T12:30:26.153Z,99.90
2024-02-10T12:32:52.836Z,99.90
2024-02-10T12:35:21.110Z,99.90
2024-02-10T12:37:48.257Z,99.90
2024-02-10T12:40:15.195Z,99.90
2024-02-10T12:42:43.564Z,99.90
2024-02-10T12:45:18.313Z,99.90
2024-02-10T12:47:46.447Z,99.90
2024-02-10T12:50:13.215Z,99.90
2024-02-10T12:52:40.339Z,99.90
2024-02-10T12:55:10.881Z,99.90
2024-02-10T12:57:38.899Z,99.90
2024-02-10T13:00:22.971Z,99.90
2024-02-10T13:02:50.241Z,99.90
2024-02-10T13:05:19.423Z,99.90
2024-02-10T13:07:47.162Z,99.90
2024-02-10T13:10:22.993Z,99.90
2024-02-10T13:12:49.618Z,99.90
2024-02-10T13:15:16.402Z,99.90
2024-02-10T13:17:43.215Z,99.90
2024-02-10T13:20:12.250Z,99.90
2024-02-10T13:22:39.757Z,99.90
2024-02-10T13:25:08.300Z,99.90
2024-02-10T13:27:34.990Z,99.90
2024-02-10T13:30:01.745Z,99.90
2024-02-10T13:32:32.248Z,99.90
2024-02-10T13:35:14.793Z,99.90
2024-02-10T13:38:05.118Z,99.90
2024-02-10T13:40:52.283Z,99.90
2024-02-10T13:43:38.652Z,99.90
2024-02-10T13:46:23.813Z,99.90
2024-02-10T13:49:08.862Z,99.90
2024-02-10T13:51:53.929Z,99.90
2024-02-10T13:54:39.106Z,99.90
2024-02-10T13:57:24.214Z,99.90
2024-02-10T13:59:50.815Z,99.90
2024-02-10T14:02:17.550Z,99.90
2024-02-10T14:04:50.853Z,99.90
2024-02-10T14:07:30.514Z,99.90
2024-02-10T14:10:16.395Z,99.90
2024-02-10T14:12:46.828Z,99.90
2024-02-10T14:15:22.394Z,99.90
2024-02-10T14:17:49.163Z,99.90
2024-02-10T14:20:26.869Z,99.90
2024-02-10T14:22:56.997Z,99.90
2024-02-10T14:25:28.740Z,99.90
2024-02-10T14:27:57.738Z,99.90
2024-02-10T14:30:32.752Z,96.00
2024-02-10T14:33:00.583Z,91.00
2024-02-10T14:35:45.629Z,86.40
2024-02-10T14:38:25.109Z,75.20
2024-02-10T14:40:52.897Z,74.20
2024-02-10T14:43:19.938Z,75.20
2024-02-10T14:45:47.927Z,77.10
2024-02-10T14:48:17.471Z,76.20
2024-02-10T14:50:44.679Z,78.40
2024-02-10T14:53:11.891Z,80.20
2024-02-10T14:55:38.751Z,81.10
2024-02-10T14:58:07.569Z,83.40
2024-02-10T15:00:35.635Z,86.40
2024-02-10T15:03:03.204Z,90.00
2024-02-10T15:05:29.872Z,91.20
2024-02-10T15:08:01.305Z,92.60
2024-02-10T15:10:28.346Z,93.90
2024-02-10T15:12:55.613Z,94.10
2024-02-10T15:15:22.244Z,94.50
2024-02-10T15:17:49.056Z,95.00
2024-02-10T15:20:16.067Z,95.90
2024-02-10T15:22:42.773Z,96.80
2024-02-10T15:25:14.309Z,97.60
2024-02-10T15:27:40.955Z,98.40
2024-02-10T15:30:10.390Z,99.10
2024-02-10T15:32:37.186Z,99.80
2024-02-10T15:35:06.754Z,99.90
2024-02-10T15:37:33.511Z,99.90
2024-02-10T15:40:02.348Z,99.90
2024-02-10T15:42:29.115Z,99.90
2024-02-10T15:44:55.751Z,99.90
2024-02-10T15:47:22.370Z,99.90
2024-02-10T15:49:53.642Z,99.90
2024-02-10T15:52:20.336Z,99.90
2024-02-10T15:54:46.943Z,99.90
2024-02-10T15:57:13.507Z,99.90
2024-02-10T15:59:40.100Z,99.90
2024-02-10T16:02:10.273Z,99.90
2024-02-10T16:04:38.193Z,99.90
2024-02-10T16:07:04.941Z,99.90
2024-02-10T16:09:31.650Z,99.90
2024-02-10T16:11:58.900Z,99.90
2024-02-10T16:14:28.938Z,99.90
2024-02-10T16:16:57.362Z,99.90
2024-02-10T16:19:26.489Z,99.90
2024-02-10T16:21:53.862Z,99.90
2024-02-10T16:24:20.615Z,99.90
2024-02-10T16:26:47.362Z,99.90
2024-02-10T16:29:14.187Z,99.90
2024-02-10T16:31:44.328Z,99.90
2024-02-10T16:34:11.554Z,99.90
2024-02-10T16:36:45.385Z,99.90
2024-02-10T16:39:12.081Z,99.90
2024-02-10T16:41:38.674Z,99.90
2024-02-10T16:44:05.519Z,99.90
2024-02-10T16:46:35.655Z,99.90
2024-02-10T16:49:02.448Z,99.90
2024-02-10T16:51:37.563Z,99.90
2024-02-10T16:54:07.200Z,99.90
2024-02-10T16:56:36.965Z,99.90
2024-02-10T16:59:04.376Z,99.90
2024-02-10T17:01:31.806Z,99.90
2024-02-10T17:03:58.734Z,99.90
2024-02-10T17:06:25.476Z,99.90
2024-02-10T17:08:52.088Z,99.90
2024-02-10T17:11:18.674Z,99.90
2024-02-10T17:13:47.602Z,99.90
2024-02-10T17:16:15.921Z,99.90
2024-02-10T17:18:42.880Z,99.90
2024-02-10T17:21:09.571Z,99.90
2024-02-10T17:23:36.226Z,99.90
2024-02-10T17:26:13.486Z,99.90
2024-02-10T17:28:40.896Z,99.90
2024-02-10T17:31:07.564Z,99.90
2024-02-10T17:33:37.082Z,99.90
2024-02-10T17:36:05.281Z,99.90
2024-02-10T17:38:32.194Z,99.90
2024-02-10T17:40:58.955Z,99.90
2024-02-10T17:43:25.654Z,99.90
2024-02-10T17:45:53.756Z,99.90
2024-02-10T17:48:24.523Z,99.90
2024-02-10T17:50:52.479Z,99.90
2024-02-10T17:53:24.061Z,99.90
2024-02-10T17:55:57.354Z,99.90
2024-02-10T17:58:29.773Z,99.90
2024-02-10T18:00:56.789Z,99.90
2024-02-10T18:03:25.303Z,99.90
2024-02-10T18:05:53.731Z,99.90
2024-02-10T18:08:20.394Z,99.90
2024-02-10T18:10:47.471Z,99.90
2024-02-10T18:13:14.334Z,99.90
2024-02-10T18:15:41.220Z,99.90
2024-02-10T18:18:10.880Z,99.90
2024-02-10T18:20:37.974Z,99.90
2024-02-10T18:23:07.706Z,99.90
2024-02-10T18:25:34.543Z,99.90
2024-02-10T18:28:05.176Z,99.90
2024-02-10T18:30:31.907Z,99.90
2024-02-10T18:32:58.654Z,99.90
2024-02-10T18:35:25.438Z,99.90
2024-02-10T18:37:55.540Z,99.90
2024-02-10T18:40:26.528Z,99.90
2024-02-10T18:42:56.580Z,99.90
2024-02-10T18:45:27.954Z,99.90
2024-02-10T18:47:55.542Z,99.90
2024-02-10T18:50:22.479Z,99.90
2024-02-10T18:52:49.821Z,99.90
2024-02-10T18:55:19.019Z,99.90
2024-02-10T18:57:46.085Z,99.90
2024-02-10T19:00:20.180Z,99.90
2024-02-10T19:02:50.233Z,99.90
2024-02-10T19:05:17.569Z,99.90
2024-02-10T19:07:44.835Z,99.90
2024-02-10T19:10:11.757Z,99.90
2024-02-10T19:12:38.413Z,99.90
2024-02-10T19:15:11.295Z,99.90
2024-02-10T19:17:41.139Z,99.90
2024-02-10T19:20:08.416Z,99.90
2024-02-10T19:22:36.666Z,99.90
2024-02-10T19:25:10.283Z,99.90
2024-02-10T19:27:39.648Z,99.90
2024-02-10T19:30:10.110Z,99.90
2024-02-10T19:32:41.116Z,99.90
2024-02-10T19:35:13.947Z,99.90
2024-02-10T19:37:43.148Z,99.90
2024-02-10T19:40:16.343Z,99.90
2024-02-10T19:42:46.140Z,99.90
2024-02-10T19:45:17.214Z,99.90
2024-02-10T19:47:52.273Z,99.90
2024-02-10T19:50:19.877Z,99.90
2024-02-10T19:52:47.257Z,99.90
2024-02-10T19:55:15.145Z,99.90
2024-02-10T19:57:42.020Z,99.90
2024-02-10T20:00:10.271Z,99.90
2024-02-10T20:02:36.867Z,99.90
2024-02-10T20:05:05.072Z,99.90
2024-02-10T20:07:32.269Z,99.90
2024-02-10T20:09:59.200Z,99.90
2024-02-10T20:12:26.495Z,99.90
2024-02-10T20:14:54.198Z,99.90
2024-02-10T20:17:21.703Z,99.90
2024-02-10T20:19:49.023Z,99.90
2024-02-10T20:22:19.449Z,99.90
2024-02-10T20:24:48.823Z,99.90
2024-02-10T20:27:17.763Z,99.90
2024-02-10T20:29:44.681Z,99.90
2024-02-10T20:32:11.466Z,99.90
2024-02-10T20:34:41.722Z,99.90
2024-02-10T20:37:10.258Z,99.90
2024-02-10T20:39:39.855Z,99.90
2024-02-10T20:42:06.891Z,99.90
2024-02-10T20:44:33.530Z,99.90
2024-02-10T20:47:00.833Z,99.90
2024-02-10T20:49:28.515Z,99.90
2024-02-10T20:51:56.074Z,99.90
2024-02-10T20:54:22.714Z,99.90
2024-02-10T20:56:52.202Z,99.90
2024-02-10T20:59:19.739Z,99.90
2024-02-10T21:01:46.477Z,99.90
2024-02-10T21:04:14.106Z,99.90
2024-02-10T21:06:44.873Z,99.90
2024-02-10T21:09:14.027Z,99.90
2024-02-10T21:11:43.709Z,99.90
2024-02-10T21:14:13.398Z,99.90
2024-02-10T21:16:42.181Z,99.90
2024-02-10T21:19:09.305Z,99.90
2024-02-10T21:21:38.919Z,99.90
2024-02-10T21:24:06.045Z,99.90
2024-02-10T21:26:34.332Z,99.90
2024-02-10T21:29:06.788Z,99.90
2024-02-10T21:31:36.782Z,99.90
2024-02-10T21:34:04.181Z,99.90
2024-02-10T21:36:46.631Z,99.90
2024-02-10T21:39:16.805Z,99.90
2024-02-10T21:41:43.930Z,99.90
2024-02-10T21:44:15.548Z,99.90
2024-02-10T21:46:42.494Z,99.90
2024-02-10T21:49:09.276Z,99.90
2024-02-10T21:51:38.597Z,99.90
2024-02-10T21:54:06.348Z,99.90
2024-02-10T21:56:41.705Z,99.90
2024-02-10T21:59:12.112Z,99.90
2024-02-10T22:01:39.621Z,99.90
2024-02-10T22:04:07.577Z,99.90
2024-02-10T22:06:34.490Z,99.90
2024-02-10T22:09:05.446Z,99.90
2024-02-10T22:11:32.419Z,99.90
2024-02-10T22:13:59.543Z,99.90
2024-02-10T22:16:26.271Z,99.90
2024-02-10T22:18:52.956Z,99.90
2024-02-10T22:21:19.577Z,99.90
2024-02-10T22:23:47.279Z,99.90
2024-02-10T22:26:15.808Z,99.90
2024-02-10T22:28:42.523Z,99.90
2024-02-10T22:31:09.121Z,99.90
2024-02-10T22:33:36.063Z,99.90
2024-02-10T22:36:03.587Z,99.90
2024-02-10T22:38:30.213Z,99.90
2024-02-10T22:40:58.818Z,99.90
2024-02-10T22:43:26.162Z,99.90
2024-02-10T22:45:52.833Z,99.90
2024-02-10T22:48:21.009Z,99.90
2024-02-10T22:50:47.832Z,99.90
2024-02-10T22:53:15.045Z,99.90
2024-02-10T22:55:44.975Z,99.90
2024-02-10T22:58:12.509Z,99.90
2024-02-10T23:00:53.413Z,99.90
2024-02-10T23:03:20.175Z,99.90
2024-02-10T23:05:47.555Z,99.90
2024-02-10T23:08:16.849Z,99.90
2024-02-10T23:10:44.400Z,99.90
2024-02-10T23:13:16.571Z,99.90
2024-02-10T23:15:44.212Z,99.90
2024-02-10T23:18:13.969Z,99.90
2024-02-10T23:20:42.642Z,99.90
2024-02-10T23:23:14.434Z,99.90
2024-02-10T23:25:42.986Z,99.90
2024-02-10T23:28:22.408Z,99.90
2024-02-10T23:30:52.821Z,99.90
2024-02-10T23:33:32.950Z,99.90
2024-02-10T23:36:01.102Z,99.90
2024-02-10T23:38:27.962Z,99.90
2024-02-10T23:40:56.457Z,99.90
2024-02-10T23:43:23.623Z,99.90
2024-02-10T23:45:50.360Z,99.90
2024-02-10T23:48:20.485Z,99.90
2024-02-10T23:50:47.866Z,99.90
2024-02-10T23:53:14.839Z,99.90
2024-02-10T23:55:44.048Z,99.90
2024-02-10T23:58:12.367Z,99.90
